createdAt,value
2022-09-25T00:00:24.015Z,0
2022-09-25T00:03:49.467Z,0
2022-09-25T00:07:14.950Z,0
2022-09-25T00:10:40.393Z,0
2022-09-25T00:14:06.034Z,0
2022-09-25T00:17:31.331Z,0
2022-09-25T00:20:56.856Z,0
2022-09-25T00:24:22.555Z,0
2022-09-25T00:27:47.828Z,0
2022-09-25T00:31:13.366Z,0
2022-09-25T00:34:39.755Z,0
2022-09-25T00:38:04.157Z,0
2022-09-25T00:41:29.652Z,0
2022-09-25T00:44:55.075Z,0
2022-09-25T00:48:20.525Z,0
2022-09-25T00:51:45.960Z,0
2022-09-25T00:55:11.426Z,0
2022-09-25T00:58:36.865Z,0
2022-09-25T01:02:02.400Z,0
2022-09-25T01:05:27.830Z,0
2022-09-25T01:08:53.255Z,0
2022-09-25T01:12:18.684Z,0
2022-09-25T01:15:44.144Z,0
2022-09-25T01:19:09.637Z,0
2022-09-25T01:22:35.150Z,0
2022-09-25T01:26:05.654Z,0
2022-09-25T01:29:31.155Z,0
2022-09-25T01:32:56.674Z,0
2022-09-25T01:36:22.126Z,0
2022-09-25T01:39:47.625Z,0
2022-09-25T01:43:13.055Z,0
2022-09-25T01:46:38.538Z,0
2022-09-25T01:50:04.014Z,0
2022-09-25T01:53:29.438Z,0
2022-09-25T01:56:54.933Z,0
2022-09-25T02:00:20.358Z,0
2022-09-25T02:03:45.836Z,0
2022-09-25T02:07:11.306Z,0
2022-09-25T02:10:36.758Z,0
2022-09-25T02:14:02.268Z,0
2022-09-25T02:17:28.263Z,0
2022-09-25T02:20:53.677Z,0
2022-09-25T02:24:19.158Z,0
2022-09-25T02:27:44.607Z,0
2022-09-25T02:31:10.127Z,0
2022-09-25T02:34:35.486Z,0
2022-09-25T02:38:00.948Z,0
2022-09-25T02:41:26.387Z,0
2022-09-25T02:44:51.830Z,0
2022-09-25T02:48:17.343Z,0
2022-09-25T02:51:42.750Z,0
2022-09-25T02:55:08.239Z,0
2022-09-25T02:58:33.679Z,0
2022-09-25T03:01:59.185Z,0
2022-09-25T03:05:24.659Z,0
2022-09-25T03:08:50.043Z,0
2022-09-25T03:12:15.512Z,0
2022-09-25T03:15:40.987Z,0
2022-09-25T03:19:06.401Z,0
2022-09-25T03:22:31.916Z,0
2022-09-25T03:25:57.297Z,0
2022-09-25T03:29:22.765Z,0
2022-09-25T03:32:48.186Z,0
2022-09-25T03:36:13.629Z,0
2022-09-25T03:39:39.097Z,0
2022-09-25T03:46:28.452Z,0
2022-09-25T03:49:53.855Z,0
2022-09-25T03:53:19.280Z,0
2022-09-25T03:56:44.825Z,0
2022-09-25T04:00:10.113Z,0
2022-09-25T04:03:35.591Z,0
2022-09-25T04:07:01.004Z,0
2022-09-25T04:10:26.443Z,0
2022-09-25T04:13:51.928Z,0
2022-09-25T04:17:17.431Z,0
2022-09-25T04:20:42.856Z,0
2022-09-25T04:24:08.332Z,0
2022-09-25T04:27:33.821Z,0
2022-09-25T04:30:59.460Z,0
2022-09-25T04:34:24.750Z,0
2022-09-25T04:37:50.227Z,0
2022-09-25T04:41:15.712Z,0
2022-09-25T04:44:41.153Z,0
2022-09-25T04:48:06.617Z,0
2022-09-25T04:51:32.121Z,0
2022-09-25T04:54:57.707Z,0
2022-09-25T04:58:23.544Z,0
2022-09-25T05:01:49.072Z,0
2022-09-25T05:05:14.625Z,0
2022-09-25T05:08:39.860Z,0
2022-09-25T05:12:05.302Z,0
2022-09-25T05:15:30.775Z,0
2022-09-25T05:18:56.243Z,0
2022-09-25T05:22:21.840Z,0
2022-09-25T05:25:47.187Z,0
2022-09-25T05:29:12.739Z,0
2022-09-25T05:32:38.168Z,0
2022-09-25T05:36:03.652Z,0
2022-09-25T05:39:29.083Z,0
2022-09-25T05:42:54.462Z,0
2022-09-25T05:46:20.899Z,0
2022-09-25T05:49:46.346Z,0
2022-09-25T05:53:11.781Z,0
2022-09-25T05:56:37.199Z,0
2022-09-25T06:00:02.661Z,0
2022-09-25T06:03:28.087Z,0
2022-09-25T06:06:53.487Z,0
2022-09-25T06:10:18.915Z,6
2022-09-25T06:13:44.356Z,6
2022-09-25T06:17:09.741Z,6
2022-09-25T06:20:35.139Z,6
2022-09-25T06:24:00.602Z,6
2022-09-25T06:27:25.978Z,6
2022-09-25T06:30:51.466Z,6
2022-09-25T06:34:16.816Z,6
2022-09-25T06:37:42.193Z,6
2022-09-25T06:41:07.695Z,6
2022-09-25T06:44:33.051Z,6
2022-09-25T06:47:58.499Z,6
2022-09-25T06:51:23.883Z,6
2022-09-25T06:54:49.342Z,11
2022-09-25T06:58:14.740Z,11
2022-09-25T07:01:40.208Z,11
2022-09-25T07:05:05.569Z,11
2022-09-25T07:08:30.978Z,11
2022-09-25T07:11:56.370Z,11
2022-09-25T07:15:21.852Z,17
2022-09-25T07:18:47.272Z,17
2022-09-25T07:22:12.698Z,17
2022-09-25T07:25:38.099Z,17
2022-09-25T07:29:03.541Z,17
2022-09-25T07:32:28.915Z,17
2022-09-25T07:35:54.338Z,17
2022-09-25T07:39:19.771Z,17
2022-09-25T07:42:45.187Z,17
2022-09-25T07:46:10.611Z,17
2022-09-25T07:49:36.005Z,17
2022-09-25T07:53:01.420Z,17
2022-09-25T07:56:26.861Z,17
2022-09-25T07:59:52.274Z,17
2022-09-25T08:03:17.758Z,17
2022-09-25T08:06:43.137Z,17
2022-09-25T08:10:08.553Z,17
2022-09-25T08:13:33.994Z,23
2022-09-25T08:16:59.384Z,23
2022-09-25T08:20:24.790Z,23
2022-09-25T08:23:50.202Z,23
2022-09-25T08:27:15.630Z,23
2022-09-25T08:30:41.045Z,28
2022-09-25T08:34:28.438Z,28
2022-09-25T08:37:31.849Z,28
2022-09-25T08:40:57.431Z,28
2022-09-25T08:44:22.696Z,28
2022-09-25T08:47:48.138Z,28
2022-09-25T08:51:13.510Z,23
2022-09-25T08:54:40.938Z,23
2022-09-25T08:58:04.365Z,17
2022-09-25T09:01:29.777Z,17
2022-09-25T09:04:55.222Z,17
2022-09-25T09:08:20.603Z,17
2022-09-25T09:11:46.001Z,17
2022-09-25T09:15:11.435Z,17
2022-09-25T09:18:36.846Z,23
2022-09-25T09:22:02.351Z,23
2022-09-25T09:25:27.688Z,23
2022-09-25T09:28:53.117Z,17
2022-09-25T09:32:18.506Z,17
2022-09-25T09:35:43.885Z,17
2022-09-25T09:39:09.328Z,23
2022-09-25T09:42:34.755Z,23
2022-09-25T09:46:00.258Z,23
2022-09-25T09:49:25.597Z,23
2022-09-25T09:52:51.021Z,17
2022-09-25T09:56:16.436Z,17
2022-09-25T09:59:41.803Z,17
2022-09-25T10:03:07.354Z,23
2022-09-25T10:06:32.600Z,23
2022-09-25T10:09:58.037Z,34
2022-09-25T10:13:23.431Z,28
2022-09-25T10:16:48.804Z,28
2022-09-25T10:20:14.298Z,28
2022-09-25T10:23:39.633Z,28
2022-09-25T10:27:05.066Z,39
2022-09-25T10:30:30.493Z,39
2022-09-25T10:33:55.911Z,39
2022-09-25T10:37:21.912Z,56
2022-09-25T10:40:47.361Z,79
2022-09-25T10:44:12.937Z,62
2022-09-25T10:47:38.232Z,51
2022-09-25T10:51:03.700Z,45
2022-09-25T10:54:29.105Z,39
2022-09-25T10:57:54.613Z,34
2022-09-25T11:01:20.310Z,34
2022-09-25T11:04:46.495Z,34
2022-09-25T11:08:11.933Z,34
2022-09-25T11:11:37.378Z,28
2022-09-25T11:15:02.864Z,28
2022-09-25T11:18:28.334Z,23
2022-09-25T11:21:53.774Z,23
2022-09-25T11:25:19.197Z,34
2022-09-25T11:28:44.624Z,45
2022-09-25T11:32:10.035Z,51
2022-09-25T11:35:35.538Z,56
2022-09-25T11:39:00.958Z,28
2022-09-25T11:42:26.373Z,17
2022-09-25T11:45:51.864Z,23
2022-09-25T11:49:17.549Z,45
2022-09-25T11:52:42.735Z,23
2022-09-25T11:56:08.165Z,28
2022-09-25T11:59:33.630Z,39
2022-09-25T12:02:59.109Z,45
2022-09-25T12:06:24.634Z,28
2022-09-25T12:09:50.040Z,17
2022-09-25T12:13:15.516Z,17
2022-09-25T12:16:41.110Z,11
2022-09-25T12:20:06.570Z,11
2022-09-25T12:23:32.046Z,6
2022-09-25T12:26:57.522Z,6
2022-09-25T12:30:23.019Z,6
2022-09-25T12:33:48.452Z,0
2022-09-25T12:37:13.906Z,0
2022-09-25T12:40:39.486Z,0
2022-09-25T12:44:04.927Z,6
2022-09-25T12:47:30.463Z,0
2022-09-25T12:50:55.798Z,6
2022-09-25T12:54:21.286Z,6
2022-09-25T12:57:46.682Z,6
2022-09-25T13:01:12.218Z,0
2022-09-25T13:04:37.685Z,0
2022-09-25T13:08:03.118Z,6
2022-09-25T13:11:28.604Z,6
2022-09-25T13:14:54.022Z,6
2022-09-25T13:18:19.468Z,6
2022-09-25T13:21:44.904Z,6
2022-09-25T13:25:10.361Z,6
2022-09-25T13:28:35.766Z,6
2022-09-25T13:32:01.247Z,6
2022-09-25T13:35:26.652Z,6
2022-09-25T13:38:52.183Z,6
2022-09-25T13:42:17.467Z,6
2022-09-25T13:45:42.975Z,6
2022-09-25T13:49:08.396Z,6
2022-09-25T13:52:33.824Z,6
2022-09-25T13:55:59.291Z,6
2022-09-25T13:59:24.713Z,6
2022-09-25T14:02:50.101Z,6
2022-09-25T14:06:15.544Z,0
2022-09-25T14:09:40.976Z,0
2022-09-25T14:13:07.364Z,0
2022-09-25T14:16:31.872Z,0
2022-09-25T14:19:57.259Z,6
2022-09-25T14:23:22.717Z,6
2022-09-25T14:26:48.149Z,6
2022-09-25T14:30:13.732Z,6
2022-09-25T15:07:08.108Z,0
2022-09-25T15:10:33.291Z,6
2022-09-25T15:13:58.638Z,0
2022-09-25T15:17:23.998Z,0
2022-09-25T15:20:49.337Z,0
2022-09-25T15:24:14.833Z,0
2022-09-25T15:27:40.041Z,0
2022-09-25T15:31:05.413Z,0
2022-09-25T15:34:30.730Z,0
2022-09-25T15:37:56.065Z,0
2022-09-25T15:41:21.462Z,0
2022-09-25T15:44:46.736Z,0
2022-09-25T15:48:12.076Z,0
2022-09-25T15:51:37.403Z,0
2022-09-25T15:55:02.720Z,0
2022-09-25T15:58:28.082Z,0
2022-09-25T16:01:53.526Z,0
2022-09-25T16:05:18.754Z,0
2022-09-25T16:08:44.106Z,0
2022-09-25T16:12:09.407Z,0
2022-09-25T16:15:34.781Z,0
2022-09-25T16:19:00.108Z,0
2022-09-25T16:22:25.434Z,0
2022-09-25T16:25:50.780Z,0
2022-09-25T16:29:16.143Z,0
2022-09-25T16:32:41.489Z,0
2022-09-25T16:36:14.351Z,0
2022-09-25T16:39:32.127Z,0
2022-09-25T16:42:57.496Z,0
2022-09-25T16:46:22.874Z,0
2022-09-25T16:49:48.156Z,0
2022-09-25T16:53:13.455Z,0
2022-09-25T16:56:38.868Z,0
2022-09-25T17:00:04.261Z,0
2022-09-25T17:03:29.709Z,0
2022-09-25T17:06:55.168Z,0
2022-09-25T17:10:20.565Z,0
2022-09-25T17:13:47.463Z,0
2022-09-25T17:17:12.973Z,0
2022-09-25T17:20:38.424Z,0
2022-09-25T17:24:05.741Z,0
2022-09-25T17:27:31.218Z,0
2022-09-25T17:30:56.729Z,0
2022-09-25T17:34:27.007Z,0
2022-09-25T17:37:52.356Z,0
2022-09-25T17:41:17.816Z,0
2022-09-25T17:44:43.267Z,0
2022-09-25T17:48:08.750Z,0
2022-09-25T17:51:35.274Z,0
2022-09-25T17:55:00.689Z,0
2022-09-25T17:58:26.188Z,0
2022-09-25T18:01:51.620Z,0
2022-09-25T18:05:17.036Z,0
2022-09-25T18:08:42.451Z,0
2022-09-25T18:12:08.018Z,0
2022-09-25T18:15:33.511Z,0
2022-09-25T18:18:58.905Z,0
2022-09-25T18:22:24.525Z,0
2022-09-25T18:25:50.026Z,0
2022-09-25T18:29:15.523Z,0
2022-09-25T18:32:41.016Z,0
2022-09-25T18:36:06.486Z,0
2022-09-25T18:39:31.988Z,0
2022-09-25T18:42:57.437Z,0
2022-09-25T18:46:22.971Z,0
2022-09-25T18:49:48.365Z,0
2022-09-25T18:53:13.781Z,0
2022-09-25T18:56:39.207Z,0
2022-09-25T19:00:04.642Z,0
2022-09-25T19:03:30.078Z,0
2022-09-25T19:06:55.534Z,0
2022-09-25T19:10:21.026Z,0
2022-09-25T19:13:46.468Z,0
2022-09-25T19:17:11.959Z,0
2022-09-25T19:20:37.391Z,0
2022-09-25T19:24:02.871Z,0
2022-09-25T19:27:28.298Z,0
2022-09-25T19:30:53.816Z,0
2022-09-25T19:34:19.202Z,0
2022-09-25T19:37:44.644Z,0
2022-09-25T19:41:10.088Z,0
2022-09-25T19:44:35.473Z,0
2022-09-25T19:48:00.937Z,0
2022-09-25T19:51:26.590Z,0
2022-09-25T19:54:52.093Z,0
2022-09-25T19:58:21.148Z,0
2022-09-25T20:01:43.240Z,0
2022-09-25T20:05:08.400Z,0
2022-09-25T20:08:33.839Z,0
2022-09-25T20:11:59.262Z,0
2022-09-25T20:15:24.823Z,0
2022-09-25T20:18:50.123Z,0
2022-09-25T20:22:15.540Z,0
2022-09-25T20:25:40.926Z,0
2022-09-25T20:29:06.437Z,0
2022-09-25T20:32:31.845Z,0
2022-09-25T20:35:57.214Z,0
2022-09-25T20:39:22.614Z,0
2022-09-25T20:42:48.039Z,0
2022-09-25T20:46:13.619Z,0
2022-09-25T20:49:38.960Z,0
2022-09-25T20:53:04.394Z,0
2022-09-25T20:56:29.819Z,0
2022-09-25T20:59:55.253Z,0
2022-09-25T21:03:20.666Z,0
2022-09-25T21:06:46.105Z,0
2022-09-25T21:10:11.518Z,0
2022-09-25T21:13:36.920Z,0
2022-09-25T21:17:02.401Z,0
2022-09-25T21:20:27.751Z,0
2022-09-25T21:23:53.181Z,0
2022-09-25T21:27:18.550Z,0
2022-09-25T21:30:44.000Z,0
2022-09-25T21:34:09.376Z,0
2022-09-25T21:37:34.887Z,0
2022-09-25T21:41:00.576Z,0
2022-09-25T21:44:25.833Z,0
2022-09-25T21:47:51.318Z,0
2022-09-25T21:51:16.853Z,0
2022-09-25T21:54:42.304Z,0
2022-09-25T21:58:07.731Z,0
2022-09-25T22:01:33.158Z,0
2022-09-25T22:04:58.520Z,0
2022-09-25T22:08:23.953Z,0
2022-09-25T22:11:49.355Z,0
2022-09-25T22:15:14.779Z,0
2022-09-25T22:18:40.169Z,0
2022-09-25T22:22:05.589Z,0
2022-09-25T22:25:31.004Z,0
2022-09-25T22:28:56.492Z,0
2022-09-25T22:32:22.156Z,0
2022-09-25T22:35:47.459Z,0
2022-09-25T22:39:12.965Z,0
2022-09-25T22:42:38.455Z,0
2022-09-25T22:46:03.866Z,0
2022-09-25T22:49:29.433Z,0
2022-09-25T22:52:58.154Z,0
2022-09-25T22:56:20.150Z,0
2022-09-25T22:59:45.569Z,0
2022-09-25T23:03:11.016Z,0
2022-09-25T23:06:36.417Z,0
2022-09-25T23:10:01.942Z,0
2022-09-25T23:13:27.328Z,0
2022-09-25T23:16:52.859Z,0
2022-09-25T23:20:18.168Z,0
2022-09-25T23:23:43.562Z,0
2022-09-25T23:27:08.917Z,0
2022-09-25T23:30:34.448Z,0
2022-09-25T23:33:59.747Z,0
2022-09-25T23:37:25.155Z,0
2022-09-25T23:40:50.671Z,0
2022-09-25T23:44:16.041Z,0
2022-09-25T23:47:41.403Z,0
2022-09-25T23:51:06.824Z,0
2022-09-25T23:54:32.204Z,0
2022-09-25T23:57:57.648Z,0
